Time;durP1;ratioP1;P1;durP2;ratioP2;P2;SDS_P1;SDS_P2;PMS_P1;PMS_P2;Temp;Humidity;BMP_temperature;BMP_pressure;BME280_temperature;BME280_humidity;BME280_pressure;Samples;Min_cycle;Max_cycle;Signal;HPM_P1;HPM_P2
2022/03/14 00:00:58;;;;;;;3.13;2.70;;;11.00;99.90;;;;;;4962799;28;39429;-76
2022/03/14 00:03:25;;;;;;;3.10;2.80;;;11.00;99.90;;;;;;4963853;28;39162;-75
2022/03/14 00:05:52;;;;;;;3.70;2.88;;;11.00;99.90;;;;;;4964175;28;38845;-75
2022/03/14 00:08:22;;;;;;;3.13;2.83;;;11.00;99.90;;;;;;4962683;28;37426;-75
2022/03/14 00:10:49;;;;;;;4.75;2.40;;;11.00;99.90;;;;;;4954502;28;38351;-76
2022/03/14 00:13:17;;;;;;;3.17;2.83;;;11.00;99.90;;;;;;4956698;28;38656;-76
2022/03/14 00:15:46;;;;;;;3.83;2.50;;;11.00;99.90;;;;;;4959103;28;38105;-76
2022/03/14 00:18:17;;;;;;;3.53;2.90;;;11.00;99.90;;;;;;4963622;28;37771;-77
2022/03/14 00:20:44;;;;;;;2.92;2.65;;;10.90;99.90;;;;;;4960877;28;39470;-76
2022/03/14 00:23:12;;;;;;;3.38;2.78;;;10.90;99.90;;;;;;4957761;28;38730;-77
2022/03/14 00:25:40;;;;;;;3.58;2.97;;;10.90;99.90;;;;;;4965144;28;34509;-76
2022/03/14 00:28:07;;;;;;;3.30;2.85;;;10.90;99.90;;;;;;4951297;28;37107;-76
2022/03/14 00:30:36;;;;;;;5.03;3.28;;;10.90;99.90;;;;;;4954601;28;41418;-76
2022/03/14 00:33:02;;;;;;;3.63;3.05;;;10.90;99.90;;;;;;4979758;28;37367;-75
2022/03/14 00:35:28;;;;;;;2.83;2.50;;;10.90;99.90;;;;;;4977901;28;37139;-76
2022/03/14 00:37:54;;;;;;;3.13;2.83;;;10.80;99.90;;;;;;4959492;28;36078;-76
2022/03/14 00:40:23;;;;;;;3.70;3.33;;;10.80;99.90;;;;;;4960765;28;38693;-77
2022/03/14 00:42:50;;;;;;;3.47;3.17;;;10.90;99.90;;;;;;4966030;28;38270;-76
2022/03/14 00:45:16;;;;;;;3.30;2.92;;;10.80;99.90;;;;;;4954311;28;38532;-77
2022/03/14 00:47:42;;;;;;;3.28;2.97;;;10.80;99.90;;;;;;4959583;28;37535;-76
2022/03/14 00:50:11;;;;;;;3.80;3.08;;;10.80;99.90;;;;;;4964447;28;37928;-78
2022/03/14 00:52:39;;;;;;;5.00;2.70;;;10.80;99.90;;;;;;4961164;28;37867;-76
2022/03/14 00:55:08;;;;;;;3.03;2.72;;;10.80;99.90;;;;;;4983395;28;39231;-77
2022/03/14 00:57:34;;;;;;;3.05;2.63;;;10.80;99.90;;;;;;4988670;28;36550;-76
2022/03/14 01:00:01;;;;;;;4.00;2.88;;;10.80;99.90;;;;;;4973407;28;38550;-76
2022/03/14 01:02:27;;;;;;;3.22;2.90;;;10.80;99.90;;;;;;4968060;28;47388;-76
2022/03/14 01:04:53;;;;;;;4.05;3.05;;;10.80;99.90;;;;;;4984664;28;38896;-76
2022/03/14 01:07:20;;;;;;;4.85;3.90;;;10.70;99.90;;;;;;4976041;28;37912;-76
2022/03/14 01:09:46;;;;;;;3.60;3.22;;;10.70;99.90;;;;;;4985169;28;38808;-76
2022/03/14 01:12:13;;;;;;;4.82;2.83;;;10.80;99.90;;;;;;4966980;28;37614;-76
2022/03/14 01:14:39;;;;;;;3.95;3.28;;;10.80;99.90;;;;;;4983157;28;38728;-77
2022/03/14 01:17:05;;;;;;;3.45;3.15;;;10.70;99.90;;;;;;4968465;28;36345;-76
2022/03/14 01:19:32;;;;;;;4.25;3.50;;;10.70;99.90;;;;;;4983839;28;39635;-77
2022/03/14 01:21:58;;;;;;;5.88;3.85;;;10.70;99.90;;;;;;4981283;28;37804;-79
2022/03/14 01:24:26;;;;;;;4.53;3.60;;;10.60;99.90;;;;;;4983784;28;36902;-80
2022/03/14 01:26:52;;;;;;;3.92;3.53;;;10.60;99.90;;;;;;4985998;28;36728;-80
2022/03/14 01:29:20;;;;;;;4.30;3.78;;;10.50;99.90;;;;;;4966291;28;35990;-78
2022/03/14 01:31:46;;;;;;;4.70;4.22;;;10.50;99.90;;;;;;4984941;28;39012;-78
2022/03/14 01:34:13;;;;;;;4.60;4.20;;;10.40;99.90;;;;;;4987346;28;38423;-76
2022/03/14 01:36:39;;;;;;;6.03;4.85;;;10.20;99.90;;;;;;4975241;28;37225;-76
2022/03/14 01:39:05;;;;;;;6.82;4.95;;;9.90;99.90;;;;;;4977479;28;37517;-75
2022/03/14 01:41:32;;;;;;;5.40;4.53;;;9.80;99.90;;;;;;4988205;28;37530;-77
2022/03/14 01:43:59;;;;;;;6.73;5.13;;;9.80;99.90;;;;;;4970013;28;37061;-75
2022/03/14 01:46:25;;;;;;;6.75;5.10;;;9.70;99.90;;;;;;4983813;28;38160;-76
2022/03/14 01:48:52;;;;;;;4.75;4.15;;;9.60;99.90;;;;;;4988009;28;39988;-75
2022/03/14 01:51:23;;;;;;;5.23;4.73;;;9.60;99.90;;;;;;4968403;28;39303;-76
2022/03/14 01:53:49;;;;;;;5.22;4.72;;;9.60;99.90;;;;;;4986813;28;38218;-75
2022/03/14 01:56:19;;;;;;;5.95;5.30;;;9.60;99.90;;;;;;4983958;28;37303;-79
2022/03/14 01:58:46;;;;;;;7.40;6.05;;;9.60;99.90;;;;;;4967120;28;39381;-78
2022/03/14 02:01:13;;;;;;;6.53;5.93;;;9.60;99.90;;;;;;4971445;28;37256;-78
2022/03/14 02:03:40;;;;;;;7.68;6.25;;;9.60;99.90;;;;;;4981800;28;38729;-75
2022/03/14 02:06:06;;;;;;;7.70;6.90;;;9.60;99.90;;;;;;4979249;28;36063;-75
2022/03/14 02:08:34;;;;;;;8.20;6.55;;;9.60;99.90;;;;;;4985518;28;40006;-75
2022/03/14 02:11:00;;;;;;;7.15;6.55;;;9.60;99.90;;;;;;4980564;28;38938;-75
2022/03/14 02:13:26;;;;;;;7.93;6.93;;;9.60;99.90;;;;;;4961389;28;41498;-76
2022/03/14 02:15:52;;;;;;;7.93;7.17;;;9.70;99.90;;;;;;4964052;28;36508;-76
2022/03/14 02:18:18;;;;;;;8.47;7.57;;;9.60;99.90;;;;;;4972157;28;37758;-76
2022/03/14 02:20:45;;;;;;;9.10;8.20;;;9.60;99.90;;;;;;4977598;28;37713;-76
2022/03/14 02:23:12;;;;;;;9.05;7.95;;;9.60;99.90;;;;;;4981674;28;37428;-76
2022/03/14 02:25:49;;;;;;;8.68;7.43;;;9.60;99.90;;;;;;4983172;28;37115;-76
2022/03/14 02:28:19;;;;;;;9.27;8.35;;;9.60;99.90;;;;;;4979312;28;39149;-76
2022/03/14 02:30:45;;;;;;;8.90;8.00;;;9.70;99.90;;;;;;4982316;28;39361;-76
2022/03/14 02:33:11;;;;;;;9.35;8.38;;;9.70;99.90;;;;;;4978479;28;37696;-76
2022/03/14 02:35:39;;;;;;;8.90;8.00;;;9.70;99.90;;;;;;4981577;28;36925;-76
2022/03/14 02:38:09;;;;;;;9.63;8.68;;;9.70;99.90;;;;;;4976305;28;39737;-75
2022/03/14 02:40:38;;;;;;;9.07;8.18;;;9.60;99.90;;;;;;4983341;28;39678;-76
2022/03/14 02:43:08;;;;;;;9.95;8.98;;;9.60;99.90;;;;;;4981037;28;37859;-76
2022/03/14 02:45:34;;;;;;;11.30;9.95;;;9.60;99.90;;;;;;4982185;28;36327;-76
2022/03/14 02:48:00;;;;;;;12.38;10.70;;;9.50;99.90;;;;;;4980839;28;39316;-76
2022/03/14 02:50:29;;;;;;;13.00;11.65;;;9.50;99.90;;;;;;4968828;28;47382;-76
2022/03/14 02:52:55;;;;;;;12.33;10.70;;;9.30;99.90;;;;;;4983044;28;37384;-76
2022/03/14 02:55:25;;;;;;;13.15;11.90;;;9.30;99.90;;;;;;4980231;28;37761;-77
2022/03/14 02:57:51;;;;;;;14.80;13.30;;;9.20;99.90;;;;;;4970660;28;38807;-76
2022/03/14 03:00:18;;;;;;;17.88;16.00;;;9.10;99.90;;;;;;4975041;28;41917;-76
2022/03/14 03:02:44;;;;;;;16.37;14.67;;;9.10;99.90;;;;;;4971845;28;37200;-76
2022/03/14 03:05:10;;;;;;;15.97;14.33;;;9.10;99.90;;;;;;4967281;28;36218;-76
2022/03/14 03:07:37;;;;;;;18.98;16.63;;;9.00;99.90;;;;;;4985736;28;37635;-76
2022/03/14 03:10:04;;;;;;;18.80;16.80;;;9.00;99.90;;;;;;4983278;28;38598;-76
2022/03/14 03:12:34;;;;;;;19.97;17.97;;;8.90;99.90;;;;;;4985512;28;38147;-76
2022/03/14 03:15:00;;;;;;;19.10;17.10;;;8.90;99.90;;;;;;4984805;28;38369;-76
2022/03/14 03:17:26;;;;;;;19.63;17.53;;;8.90;99.90;;;;;;4982604;28;39897;-76
2022/03/14 03:19:52;;;;;;;22.88;19.70;;;8.90;99.90;;;;;;4982544;28;39044;-76
2022/03/14 03:22:18;;;;;;;22.03;19.60;;;8.90;99.90;;;;;;4968765;28;38120;-76
2022/03/14 03:24:44;;;;;;;22.13;19.02;;;8.90;99.90;;;;;;4966100;28;36510;-76
2022/03/14 03:27:10;;;;;;;20.75;18.55;;;8.90;99.90;;;;;;4979829;28;37702;-76
2022/03/14 03:29:36;;;;;;;22.27;19.23;;;8.90;99.90;;;;;;4985512;28;38194;-75
2022/03/14 03:32:03;;;;;;;24.63;20.23;;;8.90;99.90;;;;;;4977132;28;37343;-75
2022/03/14 03:34:29;;;;;;;20.75;18.55;;;8.90;99.90;;;;;;4960379;28;36069;-76
2022/03/14 03:36:55;;;;;;;23.57;20.77;;;8.80;99.90;;;;;;4985845;28;39263;-76
2022/03/14 03:39:21;;;;;;;25.17;19.83;;;8.90;99.90;;;;;;4966527;28;38988;-76
2022/03/14 03:41:47;;;;;;;27.40;20.70;;;8.80;99.90;;;;;;4980218;28;38006;-76
2022/03/14 03:44:13;;;;;;;24.47;20.53;;;8.80;99.90;;;;;;4966261;28;38289;-76
2022/03/14 03:46:39;;;;;;;27.97;21.53;;;8.80;99.90;;;;;;4982549;28;38797;-75
2022/03/14 03:49:05;;;;;;;25.93;21.87;;;8.80;99.90;;;;;;4979283;28;38846;-76
2022/03/14 03:51:31;;;;;;;23.37;19.87;;;8.80;99.90;;;;;;4981791;28;38745;-76
2022/03/14 03:53:57;;;;;;;28.50;21.20;;;8.70;99.90;;;;;;4985804;28;37609;-76
2022/03/14 03:56:23;;;;;;;28.00;23.20;;;8.70;99.90;;;;;;4984116;28;38462;-76
2022/03/14 03:58:49;;;;;;;31.33;22.40;;;8.70;99.90;;;;;;4966961;28;39120;-75
2022/03/14 04:01:19;;;;;;;29.75;22.70;;;8.70;99.90;;;;;;4981295;28;38984;-76
2022/03/14 04:03:54;;;;;;;26.63;20.97;;;8.70;99.90;;;;;;4962893;28;38230;-75
2022/03/14 04:06:25;;;;;;;27.63;20.93;;;8.60;99.90;;;;;;4981261;28;39431;-75
2022/03/14 04:08:52;;;;;;;28.87;21.20;;;8.60;99.90;;;;;;4967027;28;39734;-76
2022/03/14 04:11:20;;;;;;;32.00;21.63;;;8.60;99.90;;;;;;4950362;28;38267;-75
2022/03/14 04:13:48;;;;;;;29.53;20.37;;;8.60;99.90;;;;;;4965608;28;37453;-76
2022/03/14 04:16:18;;;;;;;30.80;20.40;;;8.60;99.90;;;;;;4960308;28;37670;-75
2022/03/14 04:18:47;;;;;;;27.47;19.67;;;8.60;99.90;;;;;;4980242;28;39979;-76
2022/03/14 04:21:17;;;;;;;27.00;20.13;;;8.60;99.90;;;;;;4966572;28;38256;-75
2022/03/14 04:23:44;;;;;;;26.13;20.10;;;8.60;99.90;;;;;;4982708;28;37308;-76
2022/03/14 04:26:10;;;;;;;25.63;18.93;;;8.60;99.90;;;;;;4963235;28;37448;-75
2022/03/14 04:28:36;;;;;;;29.77;18.47;;;8.60;99.90;;;;;;4964440;28;38800;-75
2022/03/14 04:31:06;;;;;;;29.07;19.37;;;8.50;99.90;;;;;;4979633;28;38159;-78
2022/03/14 04:33:32;;;;;;;20.90;17.23;;;8.60;99.90;;;;;;4983514;28;37630;-75
2022/03/14 04:35:59;;;;;;;23.60;17.53;;;8.50;99.90;;;;;;4977395;28;39006;-75
2022/03/14 04:38:26;;;;;;;25.13;18.40;;;8.50;99.90;;;;;;4985113;28;38568;-75
2022/03/14 04:40:53;;;;;;;21.77;16.73;;;8.60;99.90;;;;;;4983847;28;37885;-75
2022/03/14 04:43:21;;;;;;;24.40;17.00;;;8.50;99.90;;;;;;4977995;28;39301;-75
2022/03/14 04:45:49;;;;;;;22.30;16.70;;;8.50;99.90;;;;;;4980451;28;39945;-76
2022/03/14 04:48:17;;;;;;;25.17;16.97;;;8.50;99.90;;;;;;4967669;28;40305;-76
2022/03/14 04:50:43;;;;;;;26.67;18.03;;;8.50;99.90;;;;;;4982502;28;39290;-75
2022/03/14 04:53:10;;;;;;;20.33;15.23;;;8.50;99.90;;;;;;4981146;28;38084;-75
2022/03/14 04:55:37;;;;;;;21.00;15.40;;;8.50;99.90;;;;;;4981560;28;39054;-75
2022/03/14 04:58:06;;;;;;;19.50;15.93;;;8.50;99.90;;;;;;4982347;28;38318;-75
2022/03/14 05:00:34;;;;;;;20.80;14.93;;;8.50;99.90;;;;;;4973193;28;38372;-76
2022/03/14 05:03:01;;;;;;;19.47;15.30;;;8.50;99.90;;;;;;4983450;28;37842;-77
2022/03/14 05:05:29;;;;;;;19.37;14.40;;;8.50;99.90;;;;;;4984509;28;39582;-76
2022/03/14 05:07:55;;;;;;;18.93;15.73;;;8.50;99.90;;;;;;4984423;28;38665;-76
2022/03/14 05:10:21;;;;;;;21.77;17.07;;;8.50;99.90;;;;;;4981174;28;39622;-76
2022/03/14 05:12:48;;;;;;;19.70;16.27;;;8.60;99.90;;;;;;4970726;28;37386;-76
2022/03/14 05:15:17;;;;;;;18.83;15.70;;;8.60;99.90;;;;;;4963565;28;40091;-76
2022/03/14 05:17:44;;;;;;;18.40;15.33;;;8.60;99.90;;;;;;4980046;28;38744;-76
2022/03/14 05:20:11;;;;;;;18.87;15.90;;;8.60;99.90;;;;;;4980831;28;38320;-76
2022/03/14 05:22:45;;;;;;;18.10;16.03;;;8.60;99.90;;;;;;4979865;28;37824;-77
2022/03/14 05:25:12;;;;;;;19.03;15.47;;;8.60;99.90;;;;;;4975392;28;39410;-76
2022/03/14 05:27:39;;;;;;;18.40;15.03;;;8.60;99.90;;;;;;4983435;28;38502;-76
2022/03/14 05:30:08;;;;;;;18.37;14.63;;;8.60;99.90;;;;;;4978932;28;38310;-75
2022/03/14 05:32:42;;;;;;;22.67;16.70;;;8.60;99.90;;;;;;4982217;28;37116;-76
2022/03/14 05:35:13;;;;;;;20.60;15.00;;;8.60;99.90;;;;;;4963112;28;39546;-76
2022/03/14 05:37:39;;;;;;;20.20;16.37;;;8.60;99.90;;;;;;4964692;28;40139;-76
2022/03/14 05:40:07;;;;;;;18.60;15.33;;;8.60;99.90;;;;;;4979644;28;38333;-76
2022/03/14 05:42:33;;;;;;;18.20;15.07;;;8.60;99.90;;;;;;4983513;28;39222;-76
2022/03/14 05:45:00;;;;;;;19.83;14.90;;;8.60;99.90;;;;;;4984684;28;37160;-76
2022/03/14 05:47:26;;;;;;;17.40;14.33;;;8.60;99.90;;;;;;4982293;28;36896;-75
2022/03/14 05:49:52;;;;;;;21.33;16.63;;;8.60;99.90;;;;;;4970421;28;39041;-76
2022/03/14 05:52:21;;;;;;;17.33;14.83;;;8.50;99.90;;;;;;4981572;28;37515;-76
2022/03/14 05:54:48;;;;;;;21.30;16.13;;;8.50;99.90;;;;;;4980821;28;39211;-75
2022/03/14 05:57:14;;;;;;;18.20;15.03;;;8.50;99.90;;;;;;4961478;28;38335;-75
2022/03/14 05:59:40;;;;;;;20.63;16.07;;;8.40;99.90;;;;;;4956886;28;38479;-77
2022/03/14 06:02:06;;;;;;;22.93;16.87;;;8.40;99.90;;;;;;4975304;28;37836;-76
2022/03/14 06:04:32;;;;;;;19.97;16.37;;;8.30;99.90;;;;;;4963045;28;38925;-75
2022/03/14 06:06:58;;;;;;;21.93;17.27;;;8.20;99.90;;;;;;4955801;28;39348;-76
2022/03/14 06:09:25;;;;;;;21.20;17.40;;;8.20;99.90;;;;;;4956281;28;37873;-76
2022/03/14 06:11:52;;;;;;;22.63;17.50;;;8.20;99.90;;;;;;4959919;28;37147;-76
2022/03/14 06:14:18;;;;;;;23.70;18.10;;;8.20;99.90;;;;;;4962626;28;39217;-75
2022/03/14 06:16:44;;;;;;;19.27;16.27;;;8.20;99.90;;;;;;4961227;28;39276;-76
2022/03/14 06:19:10;;;;;;;23.20;17.63;;;8.10;99.90;;;;;;4959604;28;39478;-76
2022/03/14 06:21:38;;;;;;;29.40;19.27;;;8.10;99.90;;;;;;4965547;28;37361;-76
2022/03/14 06:24:06;;;;;;;21.20;17.73;;;8.10;99.90;;;;;;4961272;28;38970;-76
2022/03/14 06:26:35;;;;;;;23.57;18.20;;;8.10;99.90;;;;;;4961470;28;38472;-76
2022/03/14 06:29:02;;;;;;;24.83;19.40;;;8.10;99.90;;;;;;4962808;28;38003;-76
2022/03/14 06:31:31;;;;;;;27.03;18.10;;;8.00;99.90;;;;;;4979585;28;48593;-76
2022/03/14 06:33:58;;;;;;;23.33;18.47;;;8.00;99.90;;;;;;4985056;28;39753;-76
2022/03/14 06:36:26;;;;;;;29.73;18.97;;;8.00;99.90;;;;;;4964036;28;38005;-76
2022/03/14 06:38:55;;;;;;;22.77;18.43;;;8.00;99.90;;;;;;4966813;28;38431;-76
2022/03/14 06:41:21;;;;;;;21.47;17.27;;;8.10;99.90;;;;;;4967693;28;38719;-76
2022/03/14 06:43:47;;;;;;;23.50;18.33;;;8.10;99.90;;;;;;4967650;28;38786;-76
2022/03/14 06:46:13;;;;;;;27.67;18.40;;;8.00;99.90;;;;;;4981889;28;39732;-76
2022/03/14 06:48:40;;;;;;;25.23;18.87;;;8.10;99.90;;;;;;4965652;28;38775;-76
2022/03/14 06:51:06;;;;;;;28.30;19.43;;;8.10;99.90;;;;;;4967403;28;37527;-76
2022/03/14 06:53:33;;;;;;;26.10;18.70;;;8.10;99.90;;;;;;4969970;28;38920;-76
2022/03/14 06:55:59;;;;;;;23.40;18.13;;;8.10;99.90;;;;;;4985141;28;38570;-75
2022/03/14 06:58:25;;;;;;;28.53;18.67;;;8.10;99.90;;;;;;4986771;28;38700;-76
2022/03/14 07:00:51;;;;;;;22.50;17.73;;;8.10;99.90;;;;;;4982654;28;37323;-76
2022/03/14 07:03:17;;;;;;;22.83;18.83;;;8.20;99.90;;;;;;4986949;28;39624;-76
2022/03/14 07:05:44;;;;;;;25.37;18.80;;;8.20;99.90;;;;;;4948457;28;38316;-76
2022/03/14 07:08:10;;;;;;;22.03;16.70;;;8.20;99.90;;;;;;4947919;28;39963;-76
2022/03/14 07:10:36;;;;;;;23.50;18.03;;;8.30;99.90;;;;;;4981960;28;36993;-76
2022/03/14 07:13:02;;;;;;;25.33;17.70;;;8.30;99.90;;;;;;4977262;28;39628;-76
2022/03/14 07:15:29;;;;;;;20.83;17.20;;;8.40;99.90;;;;;;4981735;28;38363;-76
2022/03/14 07:17:55;;;;;;;28.10;18.60;;;8.50;99.90;;;;;;4967759;28;39466;-76
2022/03/14 07:20:23;;;;;;;25.13;16.03;;;8.60;99.90;;;;;;4982789;28;37853;-76
2022/03/14 07:23:00;;;;;;;21.27;15.73;;;8.60;99.90;;;;;;4979470;28;39904;-76
2022/03/14 07:25:29;;;;;;;22.80;14.53;;;8.70;99.90;;;;;;4967943;28;47441;-76
2022/03/14 07:28:00;;;;;;;20.20;13.30;;;8.80;99.90;;;;;;4979488;28;38735;-75
2022/03/14 07:30:26;;;;;;;14.20;12.20;;;8.80;99.90;;;;;;4975720;28;38288;-76
2022/03/14 07:32:52;;;;;;;18.47;13.53;;;9.00;99.90;;;;;;4982690;28;39531;-76
2022/03/14 07:35:19;;;;;;;17.55;13.13;;;8.90;99.90;;;;;;4983511;28;39522;-76
2022/03/14 07:37:45;;;;;;;20.50;13.73;;;9.00;99.90;;;;;;4971284;28;38524;-76
2022/03/14 07:40:13;;;;;;;20.43;12.67;;;9.00;99.90;;;;;;4982957;28;38303;-76
2022/03/14 07:42:53;;;;;;;17.50;12.57;;;9.00;99.90;;;;;;4985618;28;38178;-76
2022/03/14 07:45:21;;;;;;;21.20;12.00;;;9.00;99.90;;;;;;4979316;28;38763;-76
2022/03/14 07:47:47;;;;;;;24.27;12.25;;;9.00;99.90;;;;;;4984112;28;37730;-75
2022/03/14 07:50:15;;;;;;;20.03;12.37;;;9.10;99.90;;;;;;4983811;28;38498;-75
2022/03/14 07:52:42;;;;;;;20.40;12.60;;;9.10;99.90;;;;;;4966383;28;39319;-76
2022/03/14 07:55:09;;;;;;;16.50;12.23;;;9.20;99.90;;;;;;4975578;28;37232;-75
2022/03/14 07:57:37;;;;;;;20.10;12.02;;;9.20;99.90;;;;;;4961154;28;38898;-76
2022/03/14 08:00:09;;;;;;;17.02;12.40;;;9.20;99.90;;;;;;4950016;28;38190;-76
2022/03/14 08:02:36;;;;;;;22.73;12.20;;;9.20;99.90;;;;;;4969404;28;38734;-76
2022/03/14 08:05:02;;;;;;;20.97;13.07;;;9.30;99.90;;;;;;4979217;28;37731;-76
2022/03/14 08:07:28;;;;;;;18.63;13.65;;;9.20;99.90;;;;;;4961365;28;38323;-75
2022/03/14 08:09:55;;;;;;;20.70;13.63;;;9.20;99.90;;;;;;4959108;28;36433;-75
2022/03/14 08:12:22;;;;;;;19.47;14.17;;;9.20;99.90;;;;;;4974529;28;38000;-75
2022/03/14 08:14:49;;;;;;;21.00;12.93;;;9.20;99.90;;;;;;4962315;28;38178;-77
2022/03/14 08:17:18;;;;;;;19.20;13.43;;;9.10;99.90;;;;;;4965294;28;37904;-78
2022/03/14 08:19:44;;;;;;;22.63;14.60;;;9.10;99.90;;;;;;4968307;28;37290;-77
2022/03/14 08:22:11;;;;;;;14.80;12.00;;;9.20;99.90;;;;;;4964297;28;37515;-78
2022/03/14 08:24:37;;;;;;;22.80;13.10;;;9.30;99.90;;;;;;4978990;28;38164;-77
2022/03/14 08:27:04;;;;;;;21.33;13.33;;;9.20;99.90;;;;;;4976323;28;39463;-77
2022/03/14 08:29:31;;;;;;;19.23;12.83;;;9.30;99.90;;;;;;4964715;28;36302;-77
2022/03/14 08:32:00;;;;;;;17.83;13.00;;;9.30;99.90;;;;;;4966310;28;39389;-77
2022/03/14 08:34:27;;;;;;;17.73;11.53;;;9.40;99.90;;;;;;4966875;28;40218;-77
2022/03/14 08:36:53;;;;;;;17.20;11.30;;;9.50;99.90;;;;;;4983046;28;39571;-78
2022/03/14 08:39:19;;;;;;;14.32;11.32;;;9.50;99.90;;;;;;4969563;28;38104;-78
2022/03/14 08:41:45;;;;;;;19.83;11.00;;;9.60;99.90;;;;;;4961696;28;38916;-78
2022/03/14 08:44:11;;;;;;;16.35;10.75;;;9.60;99.90;;;;;;4943346;28;38934;-77
2022/03/14 08:46:38;;;;;;;14.15;11.00;;;9.60;99.90;;;;;;4980108;28;36695;-77
2022/03/14 08:49:04;;;;;;;13.95;10.38;;;9.80;99.90;;;;;;4976192;28;38962;-77
2022/03/14 08:51:30;;;;;;;17.77;10.48;;;9.90;99.90;;;;;;4980280;28;39673;-77
2022/03/14 08:53:56;;;;;;;17.23;10.35;;;10.00;99.90;;;;;;4973727;28;38287;-77
2022/03/14 08:56:23;;;;;;;11.93;9.30;;;9.90;99.90;;;;;;4969369;28;40742;-77
2022/03/14 08:58:51;;;;;;;16.75;9.20;;;9.90;99.90;;;;;;4979637;28;37375;-77
2022/03/14 09:01:18;;;;;;;14.23;9.77;;;9.80;99.90;;;;;;4967093;28;39024;-76
2022/03/14 09:03:44;;;;;;;18.60;10.68;;;9.80;99.90;;;;;;4970254;28;37458;-77
2022/03/14 09:06:10;;;;;;;21.10;11.00;;;9.80;99.90;;;;;;4986037;28;37308;-76
2022/03/14 09:08:36;;;;;;;17.85;11.15;;;9.80;99.90;;;;;;4986022;28;38471;-76
2022/03/14 09:11:02;;;;;;;15.38;9.13;;;9.80;99.90;;;;;;4974012;28;38014;-76
2022/03/14 09:13:29;;;;;;;17.85;10.30;;;9.90;99.90;;;;;;4983594;28;37548;-77
2022/03/14 09:15:55;;;;;;;17.00;10.25;;;10.00;99.90;;;;;;4967087;28;38086;-77
2022/03/14 09:18:21;;;;;;;18.55;9.80;;;10.00;99.90;;;;;;4983869;28;36852;-79
2022/03/14 09:20:49;;;;;;;15.70;9.40;;;10.00;99.90;;;;;;4984981;28;38577;-77
2022/03/14 09:23:19;;;;;;;13.43;9.15;;;10.10;99.90;;;;;;4973600;28;41017;-77
2022/03/14 09:25:46;;;;;;;16.15;9.35;;;10.20;99.90;;;;;;4984339;28;39174;-76
2022/03/14 09:28:12;;;;;;;14.57;9.20;;;10.30;99.90;;;;;;4980565;28;38140;-76
2022/03/14 09:30:39;;;;;;;15.30;10.48;;;10.40;99.90;;;;;;4982520;28;39509;-76
2022/03/14 09:33:05;;;;;;;13.82;10.20;;;10.40;99.90;;;;;;4982488;28;37359;-76
2022/03/14 09:35:33;;;;;;;19.20;12.20;;;10.40;99.90;;;;;;4966686;28;37926;-76
2022/03/14 09:38:00;;;;;;;16.40;10.90;;;10.30;99.90;;;;;;4980259;28;37278;-76
2022/03/14 09:40:30;;;;;;;18.13;10.85;;;10.10;99.90;;;;;;4982245;28;39003;-76
2022/03/14 09:43:01;;;;;;;19.95;11.68;;;10.00;99.90;;;;;;4968589;28;37523;-76
2022/03/14 09:45:30;;;;;;;20.65;11.15;;;10.10;99.90;;;;;;4979960;28;48886;-76
2022/03/14 09:48:00;;;;;;;21.05;11.98;;;10.10;99.90;;;;;;4987484;28;34844;-76
2022/03/14 09:50:32;;;;;;;17.40;10.80;;;10.30;99.90;;;;;;4986085;28;20043;-76
2022/03/14 09:53:02;;;;;;;18.42;10.05;;;10.40;99.90;;;;;;4983244;28;38228;-76
2022/03/14 09:55:29;;;;;;;23.35;10.52;;;10.50;99.90;;;;;;4979601;28;48907;-75
2022/03/14 09:57:56;;;;;;;19.83;11.05;;;10.50;99.90;;;;;;4984330;28;37091;-76
2022/03/14 10:00:22;;;;;;;19.75;11.25;;;10.60;99.90;;;;;;4984609;28;38646;-76
2022/03/14 10:02:48;;;;;;;15.48;9.68;;;10.70;99.90;;;;;;4987087;28;38197;-75
2022/03/14 10:05:16;;;;;;;17.60;10.40;;;10.90;99.90;;;;;;4984611;28;39643;-76
2022/03/14 10:07:43;;;;;;;20.63;11.35;;;11.00;99.90;;;;;;4972125;28;37523;-76
2022/03/14 10:10:10;;;;;;;16.83;9.65;;;11.00;99.90;;;;;;4969826;28;38042;-78
2022/03/14 10:12:37;;;;;;;17.40;10.15;;;11.00;99.90;;;;;;4988900;28;38877;-78
2022/03/14 10:15:04;;;;;;;16.08;9.52;;;11.10;99.90;;;;;;4969233;28;38968;-76
2022/03/14 10:17:32;;;;;;;17.27;9.57;;;11.20;99.90;;;;;;4964674;28;36232;-76
2022/03/14 10:20:00;;;;;;;15.77;8.98;;;11.40;99.90;;;;;;4976213;28;38745;-78
2022/03/14 10:22:35;;;;;;;17.10;8.80;;;11.30;99.90;;;;;;4967292;28;47415;-79
2022/03/14 10:25:10;;;;;;;19.92;8.77;;;11.30;99.90;;;;;;4983985;28;37914;-75
2022/03/14 10:27:39;;;;;;;16.70;8.50;;;11.20;99.90;;;;;;4982579;28;37434;-78
2022/03/14 10:30:20;;;;;;;14.95;8.65;;;11.00;99.90;;;;;;4983444;28;37807;-77
2022/03/14 10:32:48;;;;;;;16.17;8.48;;;11.00;99.90;;;;;;4981568;28;38899;-77
2022/03/14 10:35:20;;;;;;;16.20;8.25;;;11.00;99.90;;;;;;4984394;28;37773;-77
2022/03/14 10:38:01;;;;;;;19.33;10.00;;;10.90;99.90;;;;;;4986831;28;36034;-77
2022/03/14 10:40:36;;;;;;;13.95;9.38;;;11.00;99.90;;;;;;4980210;28;47127;-77
2022/03/14 10:43:07;;;;;;;24.70;11.10;;;11.20;99.90;;;;;;4984867;28;39684;-76
2022/03/14 10:45:33;;;;;;;18.98;9.13;;;11.20;99.90;;;;;;4971590;28;39787;-77
2022/03/14 10:48:02;;;;;;;17.92;9.32;;;11.00;99.90;;;;;;4988767;28;36057;-77
2022/03/14 10:50:33;;;;;;;20.83;9.85;;;10.90;99.90;;;;;;4984901;28;48815;-77
2022/03/14 10:53:20;;;;;;;18.40;9.98;;;10.80;99.90;;;;;;4985433;28;37665;-77
2022/03/14 10:55:48;;;;;;;18.13;10.55;;;10.80;99.90;;;;;;4988751;28;47879;-77
2022/03/14 10:58:17;;;;;;;15.98;9.65;;;10.80;99.90;;;;;;4985218;28;37764;-77
2022/03/14 11:00:53;;;;;;;19.55;10.35;;;10.80;99.90;;;;;;4983366;28;38245;-76
2022/03/14 11:03:23;;;;;;;21.08;11.20;;;10.70;99.90;;;;;;4979424;28;37441;-76
2022/03/14 11:05:51;;;;;;;16.42;10.60;;;10.80;99.90;;;;;;4978419;28;38963;-76
2022/03/14 11:08:34;;;;;;;18.23;10.63;;;11.00;99.90;;;;;;4985515;28;37652;-77
2022/03/14 11:11:03;;;;;;;17.35;9.68;;;11.30;99.90;;;;;;4971712;28;40468;-77
2022/03/14 11:13:29;;;;;;;17.30;10.10;;;11.50;99.90;;;;;;4965792;28;48846;-77
2022/03/14 11:15:56;;;;;;;18.60;10.43;;;11.70;99.90;;;;;;4981923;28;40042;-77
2022/03/14 11:18:24;;;;;;;19.23;9.85;;;11.80;99.90;;;;;;4985214;28;37326;-77
2022/03/14 11:20:54;;;;;;;16.65;10.07;;;12.00;99.90;;;;;;4968741;28;39967;-77
2022/03/14 11:23:22;;;;;;;17.60;9.20;;;12.20;99.90;;;;;;4986956;28;38395;-78
2022/03/14 11:25:48;;;;;;;18.40;8.75;;;12.30;99.90;;;;;;4971586;28;39522;-79
2022/03/14 11:28:17;;;;;;;17.25;9.45;;;12.20;99.90;;;;;;4987273;28;37029;-80
2022/03/14 11:30:51;;;;;;;18.05;9.38;;;12.10;99.90;;;;;;4971094;28;39596;-80
2022/03/14 11:33:18;;;;;;;25.10;10.25;;;11.90;99.90;;;;;;4989114;28;38292;-79
2022/03/14 11:35:45;;;;;;;17.48;8.90;;;12.00;99.90;;;;;;4986443;28;38990;-80
2022/03/14 11:38:12;;;;;;;14.07;8.77;;;12.20;99.90;;;;;;4979709;28;37611;-78
2022/03/14 11:40:38;;;;;;;15.45;7.78;;;12.50;99.90;;;;;;4987378;28;38849;-79
2022/03/14 11:43:05;;;;;;;16.80;8.55;;;12.70;99.90;;;;;;4983497;28;36539;-80
2022/03/14 11:45:31;;;;;;;17.10;7.97;;;13.10;99.90;;;;;;4983210;28;37442;-78
2022/03/14 11:47:58;;;;;;;14.43;8.32;;;13.20;99.90;;;;;;4988758;28;38121;-79
2022/03/14 11:50:24;;;;;;;16.75;7.65;;;13.00;99.90;;;;;;4989242;28;38497;-79
2022/03/14 11:52:51;;;;;;;16.05;7.22;;;12.90;99.90;;;;;;4985138;28;39218;-79
2022/03/14 11:55:20;;;;;;;14.90;6.82;;;13.10;99.90;;;;;;4984553;28;38047;-79
2022/03/14 11:57:47;;;;;;;19.92;8.52;;;13.20;99.90;;;;;;4985438;28;38988;-79
2022/03/14 12:00:25;;;;;;;19.73;7.85;;;13.30;99.90;;;;;;4977806;28;39853;-79
2022/03/14 12:02:53;;;;;;;14.73;8.02;;;13.30;99.90;;;;;;4985818;28;38920;-80
2022/03/14 12:05:31;;;;;;;17.85;8.27;;;13.00;99.90;;;;;;4980599;28;38778;-79
2022/03/14 12:08:10;;;;;;;15.68;7.07;;;12.60;99.90;;;;;;4984058;28;37408;-79
2022/03/14 12:10:36;;;;;;;17.23;8.80;;;12.60;99.90;;;;;;4983191;28;48393;-79
2022/03/14 12:13:03;;;;;;;19.85;9.05;;;12.60;99.90;;;;;;4980762;28;38971;-79
2022/03/14 12:15:41;;;;;;;16.77;8.45;;;12.50;99.90;;;;;;4967487;28;38915;-79
2022/03/14 12:18:26;;;;;;;22.85;9.07;;;12.50;99.90;;;;;;4981135;28;38029;-79
2022/03/14 12:20:56;;;;;;;14.65;7.88;;;12.50;99.90;;;;;;4970613;28;38122;-78
2022/03/14 12:23:25;;;;;;;14.38;8.43;;;12.60;99.90;;;;;;4956028;28;40447;-78
2022/03/14 12:25:51;;;;;;;20.02;8.40;;;13.00;99.90;;;;;;4959949;28;38244;-79
2022/03/14 12:28:29;;;;;;;16.27;6.88;;;13.30;99.90;;;;;;4981068;28;37674;-79
2022/03/14 12:31:10;;;;;;;20.15;7.78;;;13.50;99.90;;;;;;4964906;28;39081;-78
2022/03/14 12:33:39;;;;;;;17.65;7.10;;;13.80;99.90;;;;;;4985862;28;49559;-78
2022/03/14 12:36:23;;;;;;;12.98;6.50;;;13.70;99.90;;;;;;4984345;28;37900;-77
2022/03/14 12:39:12;;;;;;;20.25;7.97;;;13.50;99.90;;;;;;4988737;28;37499;-78
2022/03/14 12:41:41;;;;;;;16.02;6.78;;;13.20;99.90;;;;;;4985919;28;48905;-77